Alpaugh, California
Current Conditions -  °F | °C
As of 7:55 PM on Saturday 25 Oct 2014 (Local Time) from KPTV Reporting Station
Few Clouds Few Clouds  
Wind Chill: 18°   Ceiling: Unl
Heat Index: 18°   Visibility: 10mi
Dew Point: 10°   Wind: 13mph
Humidity: 59%   Direction: 340°NNW
Pressure: 30.06"   Gusts: NA
Location:  35.89°N, 119.49°W
Report Text: KPTV 260255Z 34011KT 10SM FEW011 18/10 A3006 RMK AO1 52014
Loading
Personal Weather Stations






























Interactive Weather Map
Tropical Storm Tracking
New forecast layout! Learn more

10-Day Weather Forecast

Advertisements
Track Severe Weather on mobile